Time,TemperatureF,DewpointF,PressureIn,WindDirection,WindDirectionDegrees,WindSpeedMPH,WindSpeedGustMPH,Humidity,HourlyPrecipIn,Conditions,Clouds,dailyrainin,SoftwareType,DateUTC
2013-06-13 00:00:00,52.8,50.8,29.84,ENE,68,0.0,0.0,93,0.00,,,0.00,VWS V14.01,2013-06-13 04:00:00,
2013-06-13 00:05:00,52.7,50.7,29.83,ENE,68,0.0,0.0,93,0.00,,,0.00,VWS V14.01,2013-06-13 04:05:00,
2013-06-13 00:10:00,52.6,50.6,29.83,ENE,68,0.0,0.0,93,0.00,,,0.00,VWS V14.01,2013-06-13 04:10:00,
2013-06-13 00:15:00,52.6,50.6,29.83,ENE,68,0.0,0.0,93,0.00,,,0.00,VWS V14.01,2013-06-13 04:15:00,
2013-06-13 00:20:00,52.5,50.5,29.83,ENE,68,0.0,0.0,93,0.00,,,0.00,VWS V14.01,2013-06-13 04:20:00,
2013-06-13 00:25:00,52.5,50.5,29.83,ENE,68,0.0,0.0,93,0.00,,,0.00,VWS V14.01,2013-06-13 04:25:00,
2013-06-13 00:30:00,52.6,50.6,29.84,ENE,68,0.0,0.0,93,0.00,,,0.00,VWS V14.01,2013-06-13 04:30:00,
2013-06-13 00:35:00,52.7,51.0,29.84,ENE,68,0.0,0.0,94,0.00,,,0.00,VWS V14.01,2013-06-13 04:35:00,
2013-06-13 00:40:00,52.9,51.2,29.84,ENE,68,0.0,0.0,94,0.00,,,0.00,VWS V14.01,2013-06-13 04:40:00,
2013-06-13 00:45:00,53.0,51.3,29.83,ENE,68,0.0,0.0,94,0.00,,,0.00,VWS V14.01,2013-06-13 04:45:00,
2013-06-13 00:50:00,53.0,51.3,29.83,ENE,68,0.0,0.0,94,0.00,,,0.00,VWS V14.01,2013-06-13 04:50:00,
2013-06-13 00:55:00,53.0,51.3,29.83,ENE,68,0.0,0.0,94,0.00,,,0.00,VWS V14.01,2013-06-13 04:55:00,
2013-06-13 01:00:00,53.1,51.4,29.83,ENE,68,0.0,0.0,94,0.00,,,0.00,VWS V14.01,2013-06-13 05:00:00,
2013-06-13 01:05:00,53.2,51.5,29.83,ENE,68,0.0,0.0,94,0.00,,,0.00,VWS V14.01,2013-06-13 05:05:00,
2013-06-13 01:10:00,53.3,51.6,29.83,ENE,68,0.0,0.0,94,0.00,,,0.00,VWS V14.01,2013-06-13 05:10:00,
2013-06-13 01:15:00,53.3,51.6,29.83,ENE,68,0.0,0.0,94,0.00,,,0.00,VWS V14.01,2013-06-13 05:15:00,
2013-06-13 01:20:00,53.3,51.6,29.83,ENE,68,0.0,0.0,94,0.00,,,0.00,VWS V14.01,2013-06-13 05:20:00,
2013-06-13 01:25:00,53.2,51.5,29.83,ENE,68,0.0,1.0,94,0.00,,,0.00,VWS V14.01,2013-06-13 05:25:00,
2013-06-13 01:30:00,53.2,51.5,29.83,ENE,68,0.0,1.0,94,0.00,,,0.00,VWS V14.01,2013-06-13 05:30:00,
2013-06-13 01:35:00,53.3,51.6,29.83,ENE,68,0.0,0.0,94,0.00,,,0.00,VWS V14.01,2013-06-13 05:35:00,
2013-06-13 01:40:00,53.5,51.8,29.83,ENE,68,0.0,0.0,94,0.00,,,0.00,VWS V14.01,2013-06-13 05:40:00,
2013-06-13 01:45:00,53.6,51.9,29.83,ENE,68,0.0,0.0,94,0.00,,,0.00,VWS V14.01,2013-06-13 05:45:00,
2013-06-13 01:50:00,53.6,51.9,29.83,ENE,68,0.0,0.0,94,0.00,,,0.00,VWS V14.01,2013-06-13 05:50:00,
2013-06-13 01:55:00,53.5,51.8,29.83,ENE,68,0.0,0.0,94,0.00,,,0.00,VWS V14.01,2013-06-13 05:55:00,
2013-06-13 02:00:00,53.5,51.8,29.83,ENE,68,0.0,0.0,94,0.00,,,0.00,VWS V14.01,2013-06-13 06:00:00,
2013-06-13 02:05:00,53.6,51.9,29.83,ENE,68,0.0,0.0,94,0.00,,,0.00,VWS V14.01,2013-06-13 06:05:00,
2013-06-13 02:10:00,53.5,51.8,29.83,ENE,68,0.0,1.0,94,0.00,,,0.00,VWS V14.01,2013-06-13 06:10:00,
2013-06-13 02:15:00,53.6,51.9,29.83,ENE,68,1.0,3.0,94,0.00,,,0.00,VWS V14.01,2013-06-13 06:15:00,
2013-06-13 02:20:00,53.7,52.3,29.83,ESE,112,1.0,4.0,95,0.00,,,0.00,VWS V14.01,2013-06-13 06:20:00,
2013-06-13 02:25:00,53.8,52.4,29.83,ESE,112,0.0,2.0,95,0.00,,,0.00,VWS V14.01,2013-06-13 06:25:00,
2013-06-13 02:30:00,53.9,52.2,29.82,ESE,112,1.0,4.0,94,0.00,,,0.00,VWS V14.01,2013-06-13 06:30:00,
2013-06-13 02:35:00,53.9,52.2,29.82,ENE,68,2.0,3.0,94,0.00,,,0.00,VWS V14.01,2013-06-13 06:35:00,
2013-06-13 02:40:00,53.9,52.2,29.82,East,90,2.0,4.0,94,0.00,,,0.00,VWS V14.01,2013-06-13 06:40:00,
2013-06-13 02:45:00,54.0,52.3,29.82,East,90,1.0,5.0,94,0.00,,,0.00,VWS V14.01,2013-06-13 06:45:00,
2013-06-13 02:50:00,54.0,52.3,29.82,ENE,68,2.0,3.0,94,0.00,,,0.00,VWS V14.01,2013-06-13 06:50:00,
2013-06-13 02:55:00,54.0,52.0,29.81,ENE,68,0.0,4.0,93,0.00,,,0.00,VWS V14.01,2013-06-13 06:55:00,
2013-06-13 03:00:00,53.9,51.9,29.81,ENE,68,0.0,1.0,93,0.00,,,0.00,VWS V14.01,2013-06-13 07:00:00,
2013-06-13 03:05:00,53.6,51.6,29.81,ENE,68,1.0,2.0,93,0.00,,,0.00,VWS V14.01,2013-06-13 07:05:00,
2013-06-13 03:10:00,53.3,51.3,29.81,ENE,68,1.0,3.0,93,0.00,,,0.00,VWS V14.01,2013-06-13 07:10:00,
2013-06-13 03:15:00,53.2,51.2,29.81,ENE,68,0.0,1.0,93,0.00,,,0.00,VWS V14.01,2013-06-13 07:15:00,
2013-06-13 03:20:00,53.1,51.1,29.80,ENE,68,0.0,1.0,93,0.00,,,0.00,VWS V14.01,2013-06-13 07:20:00,
2013-06-13 03:25:00,52.9,50.9,29.80,ENE,68,0.0,0.0,93,0.00,,,0.00,VWS V14.01,2013-06-13 07:25:00,
2013-06-13 03:30:00,52.6,50.6,29.81,ENE,68,0.0,0.0,93,0.00,,,0.00,VWS V14.01,2013-06-13 07:30:00,
2013-06-13 03:35:00,52.3,50.3,29.81,ENE,68,0.0,0.0,93,0.00,,,0.00,VWS V14.01,2013-06-13 07:35:00,
2013-06-13 03:40:00,52.3,50.6,29.81,ENE,68,0.0,0.0,94,0.00,,,0.00,VWS V14.01,2013-06-13 07:40:00,
2013-06-13 03:45:00,52.4,50.4,29.81,ENE,68,0.0,0.0,93,0.00,,,0.00,VWS V14.01,2013-06-13 07:45:00,
2013-06-13 03:50:00,52.2,50.2,29.81,ENE,68,0.0,0.0,93,0.00,,,0.00,VWS V14.01,2013-06-13 07:50:00,
2013-06-13 03:55:00,51.9,49.9,29.81,ENE,68,0.0,0.0,93,0.00,,,0.00,VWS V14.01,2013-06-13 07:55:00,
2013-06-13 04:00:00,51.7,49.8,29.81,ENE,68,0.0,0.0,93,0.00,,,0.00,VWS V14.01,2013-06-13 08:00:00,
2013-06-13 04:05:00,51.4,49.5,29.81,ENE,68,0.0,0.0,93,0.00,,,0.00,VWS V14.01,2013-06-13 08:05:00,
2013-06-13 04:10:00,51.2,49.2,29.81,ENE,68,0.0,0.0,93,0.00,,,0.00,VWS V14.01,2013-06-13 08:10:00,
2013-06-13 04:15:00,50.9,49.0,29.81,ENE,68,0.0,0.0,93,0.00,,,0.00,VWS V14.01,2013-06-13 08:15:00,
2013-06-13 04:20:00,50.7,48.8,29.81,ENE,68,0.0,0.0,93,0.00,,,0.00,VWS V14.01,2013-06-13 08:20:00,
2013-06-13 04:25:00,50.5,48.8,29.81,ENE,68,0.0,0.0,94,0.00,,,0.00,VWS V14.01,2013-06-13 08:25:00,
2013-06-13 04:30:00,50.6,48.9,29.81,ENE,68,0.0,0.0,94,0.00,,,0.00,VWS V14.01,2013-06-13 08:30:00,
2013-06-13 04:35:00,50.8,49.1,29.81,ENE,68,0.0,0.0,94,0.00,,,0.00,VWS V14.01,2013-06-13 08:35:00,
2013-06-13 04:40:00,50.8,49.1,29.81,ENE,68,0.0,0.0,94,0.00,,,0.00,VWS V14.01,2013-06-13 08:40:00,
2013-06-13 04:45:00,50.8,49.1,29.81,ENE,68,0.0,0.0,94,0.00,,,0.00,VWS V14.01,2013-06-13 08:45:00,
2013-06-13 04:50:00,50.8,49.1,29.81,ENE,68,0.0,0.0,94,0.00,,,0.00,VWS V14.01,2013-06-13 08:50:00,
2013-06-13 04:55:00,50.8,49.1,29.81,ENE,68,0.0,0.0,94,0.00,,,0.00,VWS V14.01,2013-06-13 08:55:00,
2013-06-13 05:00:00,50.8,49.1,29.81,ENE,68,0.0,0.0,94,0.00,,,0.00,VWS V14.01,2013-06-13 09:00:00,
2013-06-13 05:05:00,50.8,49.1,29.82,ENE,68,0.0,0.0,94,0.00,,,0.00,VWS V14.01,2013-06-13 09:05:00,
2013-06-13 05:10:00,50.7,49.0,29.82,ENE,68,0.0,0.0,94,0.00,,,0.00,VWS V14.01,2013-06-13 09:10:00,
2013-06-13 05:15:00,50.7,49.0,29.81,ENE,68,0.0,0.0,94,0.00,,,0.00,VWS V14.01,2013-06-13 09:15:00,
2013-06-13 05:20:00,50.7,49.0,29.81,ENE,68,0.0,0.0,94,0.00,,,0.00,VWS V14.01,2013-06-13 09:20:00,
2013-06-13 05:25:00,50.8,49.1,29.81,ENE,68,0.0,0.0,94,0.00,,,0.00,VWS V14.01,2013-06-13 09:25:00,
2013-06-13 05:30:00,50.6,48.9,29.80,ENE,68,0.0,0.0,94,0.00,,,0.00,VWS V14.01,2013-06-13 09:30:00,
2013-06-13 05:35:00,50.5,48.8,29.80,ENE,68,0.0,0.0,94,0.00,,,0.00,VWS V14.01,2013-06-13 09:35:00,
2013-06-13 05:40:00,50.4,48.7,29.80,ENE,68,0.0,0.0,94,0.00,,,0.00,VWS V14.01,2013-06-13 09:40:00,
2013-06-13 05:45:00,50.3,48.6,29.79,ENE,68,0.0,0.0,94,0.00,,,0.00,VWS V14.01,2013-06-13 09:45:00,
2013-06-13 05:50:00,50.1,48.4,29.79,ENE,68,0.0,0.0,94,0.00,,,0.00,VWS V14.01,2013-06-13 09:50:00,
2013-06-13 05:55:00,50.1,48.4,29.79,ENE,68,0.0,0.0,94,0.00,,,0.00,VWS V14.01,2013-06-13 09:55:00,
2013-06-13 06:00:00,49.9,48.2,29.79,ENE,68,0.0,0.0,94,0.00,,,0.00,VWS V14.01,2013-06-13 10:00:00,
2013-06-13 06:05:00,49.9,48.2,29.79,ENE,68,0.0,0.0,94,0.00,,,0.00,VWS V14.01,2013-06-13 10:05:00,
2013-06-13 06:10:00,49.9,48.5,29.79,ENE,68,0.0,0.0,95,0.00,,,0.00,VWS V14.01,2013-06-13 10:10:00,
2013-06-13 06:15:00,50.0,48.6,29.79,ENE,68,0.0,0.0,95,0.00,,,0.00,VWS V14.01,2013-06-13 10:15:00,
2013-06-13 06:20:00,50.2,48.8,29.79,ENE,68,0.0,0.0,95,0.00,,,0.00,VWS V14.01,2013-06-13 10:20:00,
2013-06-13 06:25:00,50.6,49.2,29.79,ENE,68,0.0,0.0,95,0.00,,,0.00,VWS V14.01,2013-06-13 10:25:00,
2013-06-13 06:30:00,50.9,49.5,29.79,ENE,68,0.0,0.0,95,0.00,,,0.00,VWS V14.01,2013-06-13 10:30:00,
2013-06-13 06:35:00,51.0,49.6,29.79,ENE,68,0.0,0.0,95,0.00,,,0.00,VWS V14.01,2013-06-13 10:35:00,
2013-06-13 06:40:00,51.1,49.7,29.80,ENE,68,0.0,0.0,95,0.00,,,0.00,VWS V14.01,2013-06-13 10:40:00,
2013-06-13 06:45:00,51.4,50.0,29.80,ENE,68,0.0,0.0,95,0.00,,,0.00,VWS V14.01,2013-06-13 10:45:00,
2013-06-13 06:50:00,51.8,50.4,29.80,ENE,68,0.0,1.0,95,0.00,,,0.00,VWS V14.01,2013-06-13 10:50:00,
2013-06-13 06:55:00,52.2,50.8,29.80,ENE,68,0.0,0.0,95,0.00,,,0.00,VWS V14.01,2013-06-13 10:55:00,
2013-06-13 07:00:00,53.0,51.6,29.81,ENE,68,0.0,0.0,95,0.00,,,0.00,VWS V14.01,2013-06-13 11:00:00,
2013-06-13 07:05:00,53.6,52.2,29.81,ENE,68,0.0,0.0,95,0.00,,,0.00,VWS V14.01,2013-06-13 11:05:00,
2013-06-13 07:10:00,54.1,52.7,29.81,ENE,68,0.0,0.0,95,0.00,,,0.00,VWS V14.01,2013-06-13 11:10:00,
2013-06-13 07:15:00,54.2,52.8,29.80,South,180,1.0,6.0,95,0.00,,,0.00,VWS V14.01,2013-06-13 11:15:00,
2013-06-13 07:20:00,54.0,52.6,29.80,South,180,0.0,0.0,95,0.00,,,0.00,VWS V14.01,2013-06-13 11:20:00,
2013-06-13 07:25:00,54.3,52.9,29.80,North,0,0.0,3.0,95,0.00,,,0.00,VWS V14.01,2013-06-13 11:25:00,
2013-06-13 07:30:00,54.4,53.0,29.80,NNE,22,2.0,6.0,95,0.00,,,0.00,VWS V14.01,2013-06-13 11:30:00,
2013-06-13 07:35:00,54.5,53.1,29.80,East,90,1.0,7.0,95,0.00,,,0.00,VWS V14.01,2013-06-13 11:35:00,
2013-06-13 07:40:00,54.5,53.1,29.79,East,90,2.0,5.0,95,0.00,,,0.00,VWS V14.01,2013-06-13 11:40:00,
2013-06-13 07:45:00,54.5,53.1,29.79,NE,45,0.0,1.0,95,0.00,,,0.00,VWS V14.01,2013-06-13 11:45:00,
2013-06-13 07:50:00,54.5,53.1,29.79,NE,45,0.0,1.0,95,0.00,,,0.00,VWS V14.01,2013-06-13 11:50:00,
2013-06-13 07:55:00,54.5,53.1,29.79,NE,45,0.0,1.0,95,0.00,,,0.00,VWS V14.01,2013-06-13 11:55:00,
2013-06-13 08:00:00,54.5,53.1,29.79,NE,45,0.0,1.0,95,0.00,,,0.00,VWS V14.01,2013-06-13 12:00:00,
2013-06-13 08:05:00,54.5,53.1,29.79,NE,45,0.0,1.0,95,0.00,,,0.00,VWS V14.01,2013-06-13 12:05:00,
2013-06-13 08:10:00,54.5,53.1,29.78,NE,45,0.0,1.0,95,0.00,,,0.00,VWS V14.01,2013-06-13 12:10:00,
2013-06-13 08:15:00,54.5,53.1,29.78,NE,45,0.0,1.0,95,0.00,,,0.00,VWS V14.01,2013-06-13 12:15:00,
2013-06-13 08:20:00,54.5,53.1,29.78,NE,45,0.0,1.0,95,0.00,,,0.00,VWS V14.01,2013-06-13 12:20:00,
2013-06-13 08:25:00,54.5,53.1,29.78,NE,45,0.0,1.0,95,0.00,,,0.00,VWS V14.01,2013-06-13 12:25:00,
2013-06-13 08:30:00,54.5,53.1,29.78,NE,45,0.0,1.0,95,0.00,,,0.00,VWS V14.01,2013-06-13 12:30:00,
2013-06-13 08:35:00,62.8,61.3,29.77,NE,45,0.0,1.0,95,0.00,,,0.00,VWS V14.01,2013-06-13 12:35:00,
2013-06-13 08:40:00,63.2,56.6,29.77,NE,45,0.0,1.0,79,0.00,,,0.00,VWS V14.01,2013-06-13 12:40:00,
2013-06-13 08:45:00,63.4,57.1,29.77,NE,45,0.0,1.0,80,0.00,,,0.00,VWS V14.01,2013-06-13 12:45:00,
2013-06-13 08:50:00,63.4,57.5,29.77,NE,45,0.0,1.0,81,0.00,,,0.00,VWS V14.01,2013-06-13 12:50:00,
2013-06-13 08:55:00,63.6,57.0,29.76,NE,45,0.0,0.0,79,0.00,,,0.00,VWS V14.01,2013-06-13 12:55:00,
2013-06-13 09:00:00,63.8,57.9,29.76,NE,45,0.0,1.0,81,0.00,,,0.00,VWS V14.01,2013-06-13 13:00:00,
2013-06-13 09:05:00,63.7,57.8,29.76,NE,45,0.0,1.0,81,0.00,,,0.00,VWS V14.01,2013-06-13 13:05:00,
2013-06-13 09:10:00,63.5,57.9,29.76,NE,45,0.0,1.0,82,0.00,,,0.00,VWS V14.01,2013-06-13 13:10:00,
2013-06-13 09:15:00,63.3,57.7,29.76,NE,45,0.0,0.0,82,0.00,,,0.00,VWS V14.01,2013-06-13 13:15:00,
2013-06-13 09:20:00,63.0,57.8,29.76,NE,45,0.0,1.0,83,0.00,,,0.00,VWS V14.01,2013-06-13 13:20:00,
2013-06-13 09:25:00,62.8,57.9,29.76,NE,45,0.0,0.0,84,0.00,,,0.00,VWS V14.01,2013-06-13 13:25:00,
2013-06-13 09:30:00,62.8,58.2,29.76,NE,45,0.0,0.0,85,0.00,,,0.00,VWS V14.01,2013-06-13 13:30:00,
2013-06-13 09:35:00,62.5,57.9,29.76,NE,45,0.0,0.0,85,0.00,,,0.00,VWS V14.01,2013-06-13 13:35:00,
2013-06-13 09:40:00,62.2,58.0,29.76,NE,45,0.0,0.0,86,0.00,,,0.00,VWS V14.01,2013-06-13 13:40:00,
2013-06-13 09:45:00,62.1,57.9,29.76,NE,45,0.0,0.0,86,0.00,,,0.00,VWS V14.01,2013-06-13 13:45:00,
2013-06-13 09:50:00,62.0,57.5,29.76,NE,45,0.0,1.0,85,0.00,,,0.00,VWS V14.01,2013-06-13 13:50:00,
2013-06-13 09:55:00,61.9,56.7,29.77,NE,45,0.0,1.0,83,0.00,,,0.00,VWS V14.01,2013-06-13 13:55:00,
2013-06-13 10:00:00,61.9,56.3,29.76,NE,45,0.0,0.0,82,0.00,,,0.00,VWS V14.01,2013-06-13 14:00:00,
2013-06-13 10:05:00,62.0,56.1,29.76,ENE,68,0.0,3.0,81,0.00,,,0.00,VWS V14.01,2013-06-13 14:05:00,
2013-06-13 10:10:00,62.1,55.9,29.76,ENE,68,0.0,4.0,80,0.00,,,0.00,VWS V14.01,2013-06-13 14:10:00,
2013-06-13 10:15:00,62.1,56.2,29.76,SW,225,0.0,1.0,81,0.00,,,0.00,VWS V14.01,2013-06-13 14:15:00,
2013-06-13 10:20:00,62.1,56.2,29.77,SW,225,0.0,0.0,81,0.00,,,0.00,VWS V14.01,2013-06-13 14:20:00,
2013-06-13 10:25:00,62.0,55.8,29.77,SW,225,0.0,0.0,80,0.00,,,0.00,VWS V14.01,2013-06-13 14:25:00,
2013-06-13 10:30:00,62.0,55.8,29.77,WSW,248,0.0,2.0,80,0.00,,,0.00,VWS V14.01,2013-06-13 14:30:00,
2013-06-13 10:35:00,61.9,55.0,29.77,WSW,248,0.0,1.0,78,0.00,,,0.00,VWS V14.01,2013-06-13 14:35:00,
2013-06-13 10:40:00,61.9,55.0,29.76,WSW,248,0.0,1.0,78,0.00,,,0.00,VWS V14.01,2013-06-13 14:40:00,
2013-06-13 10:45:00,62.2,54.9,29.76,WSW,248,0.0,1.0,77,0.00,,,0.00,VWS V14.01,2013-06-13 14:45:00,
2013-06-13 10:50:00,62.3,55.0,29.76,WSW,248,0.0,1.0,77,0.00,,,0.00,VWS V14.01,2013-06-13 14:50:00,
2013-06-13 10:55:00,62.6,57.0,29.76,WSW,248,0.0,1.0,82,0.00,,,0.00,VWS V14.01,2013-06-13 14:55:00,
2013-06-13 11:00:00,62.6,57.4,29.76,WSW,248,0.0,1.0,83,0.00,,,0.00,VWS V14.01,2013-06-13 15:00:00,
2013-06-13 11:05:00,62.7,57.8,29.76,WSW,248,0.0,1.0,84,0.00,,,0.00,VWS V14.01,2013-06-13 15:05:00,
2013-06-13 11:10:00,62.8,57.9,29.76,WSW,248,0.0,0.0,84,0.00,,,0.00,VWS V14.01,2013-06-13 15:10:00,
2013-06-13 11:15:00,62.9,57.7,29.76,WSW,248,0.0,0.0,83,0.00,,,0.00,VWS V14.01,2013-06-13 15:15:00,
2013-06-13 11:20:00,63.0,57.4,29.75,WSW,248,0.0,0.0,82,0.00,,,0.00,VWS V14.01,2013-06-13 15:20:00,
2013-06-13 11:25:00,63.0,57.1,29.75,WSW,248,0.0,0.0,81,0.00,,,0.00,VWS V14.01,2013-06-13 15:25:00,
2013-06-13 11:30:00,63.1,56.5,29.75,WSW,248,0.0,0.0,79,0.00,,,0.00,VWS V14.01,2013-06-13 15:30:00,
2013-06-13 11:35:00,63.3,57.7,29.75,WSW,248,0.0,1.0,82,0.00,,,0.00,VWS V14.01,2013-06-13 15:35:00,
2013-06-13 11:40:00,63.6,57.7,29.75,WSW,248,0.0,1.0,81,0.00,,,0.00,VWS V14.01,2013-06-13 15:40:00,
2013-06-13 11:45:00,63.6,58.0,29.75,WSW,248,0.0,1.0,82,0.00,,,0.00,VWS V14.01,2013-06-13 15:45:00,
2013-06-13 11:50:00,63.6,57.7,29.75,WSW,248,0.0,0.0,81,0.00,,,0.00,VWS V14.01,2013-06-13 15:50:00,
2013-06-13 11:55:00,63.7,58.1,29.75,WSW,248,0.0,1.0,82,0.00,,,0.00,VWS V14.01,2013-06-13 15:55:00,
2013-06-13 12:00:00,63.6,57.7,29.74,WSW,248,0.0,2.0,81,0.00,,,0.00,VWS V14.01,2013-06-13 16:00:00,
2013-06-13 12:05:00,63.6,58.3,29.74,WSW,248,0.0,1.0,83,0.00,,,0.00,VWS V14.01,2013-06-13 16:05:00,
2013-06-13 12:10:00,63.4,58.5,29.74,WSW,248,0.0,1.0,84,0.00,,,0.00,VWS V14.01,2013-06-13 16:10:00,
2013-06-13 12:15:00,63.4,58.5,29.74,WSW,248,0.0,0.0,84,0.00,,,0.00,VWS V14.01,2013-06-13 16:15:00,
2013-06-13 12:20:00,63.5,58.9,29.75,WSW,248,0.0,0.0,85,0.00,,,0.00,VWS V14.01,2013-06-13 16:20:00,
2013-06-13 12:25:00,63.8,59.2,29.75,WSW,248,0.0,0.0,85,0.00,,,0.00,VWS V14.01,2013-06-13 16:25:00,
2013-06-13 12:30:00,63.9,59.0,29.75,WSW,248,0.0,0.0,84,0.00,,,0.00,VWS V14.01,2013-06-13 16:30:00,
2013-06-13 12:35:00,63.8,58.5,29.75,WSW,248,0.0,1.0,83,0.00,,,0.00,VWS V14.01,2013-06-13 16:35:00,
2013-06-13 12:40:00,63.7,58.5,29.75,WSW,248,0.0,1.0,83,0.00,,,0.00,VWS V14.01,2013-06-13 16:40:00,
2013-06-13 12:45:00,63.6,58.3,29.74,WSW,248,0.0,1.0,83,0.00,,,0.00,VWS V14.01,2013-06-13 16:45:00,
2013-06-13 12:50:00,63.4,58.5,29.74,West,270,0.0,1.0,84,0.00,,,0.00,VWS V14.01,2013-06-13 16:50:00,
2013-06-13 12:55:00,63.3,58.4,29.74,West,270,0.0,1.0,84,0.00,,,0.00,VWS V14.01,2013-06-13 16:55:00,
2013-06-13 13:00:00,63.3,57.4,29.74,West,270,0.0,2.0,81,0.00,,,0.00,VWS V14.01,2013-06-13 17:00:00,
2013-06-13 13:05:00,63.2,56.9,29.74,West,270,0.0,1.0,80,0.00,,,0.00,VWS V14.01,2013-06-13 17:05:00,
2013-06-13 13:10:00,63.4,58.2,29.73,West,270,0.0,1.0,83,0.00,,,0.00,VWS V14.01,2013-06-13 17:10:00,
2013-06-13 13:15:00,63.6,58.0,29.73,West,270,0.0,0.0,82,0.00,,,0.00,VWS V14.01,2013-06-13 17:15:00,
2013-06-13 13:20:00,63.6,58.7,29.73,West,270,0.0,0.0,84,0.00,,,0.00,VWS V14.01,2013-06-13 17:20:00,
2013-06-13 13:25:00,63.6,58.0,29.73,West,270,0.0,0.0,82,0.00,,,0.00,VWS V14.01,2013-06-13 17:25:00,
2013-06-13 13:30:00,63.6,58.7,29.73,West,270,0.0,0.0,84,0.00,,,0.00,VWS V14.01,2013-06-13 17:30:00,
2013-06-13 13:35:00,63.5,58.6,29.72,West,270,0.0,1.0,84,0.00,,,0.00,VWS V14.01,2013-06-13 17:35:00,
2013-06-13 13:40:00,63.4,59.2,29.72,West,270,0.0,0.0,86,0.00,,,0.00,VWS V14.01,2013-06-13 17:40:00,
2013-06-13 13:45:00,63.4,58.2,29.72,West,270,0.0,2.0,83,0.00,,,0.00,VWS V14.01,2013-06-13 17:45:00,
2013-06-13 13:50:00,63.3,58.7,29.72,West,270,0.0,1.0,85,0.00,,,0.00,VWS V14.01,2013-06-13 17:50:00,
2013-06-13 13:55:00,63.2,58.0,29.71,West,270,0.0,2.0,83,0.00,,,0.00,VWS V14.01,2013-06-13 17:55:00,
2013-06-13 14:00:00,63.0,57.8,29.71,West,270,0.0,1.0,83,0.00,,,0.00,VWS V14.01,2013-06-13 18:00:00,
2013-06-13 14:05:00,62.8,57.2,29.71,West,270,0.0,2.0,82,0.00,,,0.00,VWS V14.01,2013-06-13 18:05:00,
2013-06-13 14:10:00,62.4,56.5,29.71,West,270,0.0,1.0,81,0.00,,,0.00,VWS V14.01,2013-06-13 18:10:00,
2013-06-13 14:15:00,62.2,56.6,29.71,West,270,0.0,1.0,82,0.00,,,0.00,VWS V14.01,2013-06-13 18:15:00,
2013-06-13 14:20:00,62.2,57.3,29.71,West,270,0.0,0.0,84,0.00,,,0.00,VWS V14.01,2013-06-13 18:20:00,
2013-06-13 14:25:00,62.2,57.3,29.71,West,270,0.0,0.0,84,0.00,,,0.00,VWS V14.01,2013-06-13 18:25:00,
2013-06-13 14:30:00,62.3,57.7,29.70,West,270,0.0,0.0,85,0.00,,,0.00,VWS V14.01,2013-06-13 18:30:00,
2013-06-13 14:35:00,62.3,57.7,29.71,West,270,0.0,0.0,85,0.00,,,0.00,VWS V14.01,2013-06-13 18:35:00,
2013-06-13 14:40:00,62.4,57.8,29.70,West,270,0.0,0.0,85,0.00,,,0.00,VWS V14.01,2013-06-13 18:40:00,
2013-06-13 14:45:00,62.4,58.2,29.70,West,270,0.0,0.0,86,0.00,,,0.00,VWS V14.01,2013-06-13 18:45:00,
2013-06-13 14:50:00,62.4,57.5,29.70,West,270,0.0,1.0,84,0.00,,,0.00,VWS V14.01,2013-06-13 18:50:00,
2013-06-13 14:55:00,62.3,57.4,29.70,West,270,0.0,0.0,84,0.00,,,0.00,VWS V14.01,2013-06-13 18:55:00,
2013-06-13 15:00:00,62.3,57.7,29.70,West,270,0.0,1.0,85,0.00,,,0.00,VWS V14.01,2013-06-13 19:00:00,
2013-06-13 15:05:00,62.4,57.8,29.70,West,270,0.0,0.0,85,0.00,,,0.00,VWS V14.01,2013-06-13 19:05:00,
2013-06-13 15:10:00,62.5,57.9,29.70,West,270,0.0,0.0,85,0.00,,,0.00,VWS V14.01,2013-06-13 19:10:00,
2013-06-13 15:15:00,62.7,58.8,29.71,West,270,0.0,0.0,87,0.00,,,0.00,VWS V14.01,2013-06-13 19:15:00,
2013-06-13 15:20:00,63.0,59.1,29.70,West,270,0.0,0.0,87,0.00,,,0.00,VWS V14.01,2013-06-13 19:20:00,
2013-06-13 15:25:00,62.9,58.7,29.70,West,270,0.0,0.0,86,0.00,,,0.00,VWS V14.01,2013-06-13 19:25:00,
2013-06-13 15:30:00,62.8,58.2,29.70,West,270,0.0,0.0,85,0.00,,,0.00,VWS V14.01,2013-06-13 19:30:00,
2013-06-13 15:35:00,62.8,58.6,29.71,West,270,0.0,0.0,86,0.00,,,0.00,VWS V14.01,2013-06-13 19:35:00,
2013-06-13 15:40:00,62.7,58.8,29.71,West,270,0.0,0.0,87,0.00,,,0.00,VWS V14.01,2013-06-13 19:40:00,
2013-06-13 15:45:00,62.7,58.5,29.71,West,270,0.0,0.0,86,0.00,,,0.00,VWS V14.01,2013-06-13 19:45:00,
2013-06-13 15:50:00,62.6,58.0,29.71,West,270,0.0,0.0,85,0.00,,,0.00,VWS V14.01,2013-06-13 19:50:00,
2013-06-13 15:55:00,62.7,58.1,29.71,West,270,0.0,0.0,85,0.00,,,0.00,VWS V14.01,2013-06-13 19:55:00,
2013-06-13 16:00:00,62.6,58.4,29.71,West,270,0.0,0.0,86,0.00,,,0.00,VWS V14.01,2013-06-13 20:00:00,
2013-06-13 16:05:00,62.6,58.7,29.71,West,270,0.0,1.0,87,0.00,,,0.00,VWS V14.01,2013-06-13 20:05:00,
2013-06-13 16:10:00,62.7,58.8,29.71,West,270,0.0,0.0,87,0.00,,,0.00,VWS V14.01,2013-06-13 20:10:00,
2013-06-13 16:15:00,62.7,58.8,29.71,West,270,0.0,0.0,87,0.00,,,0.00,VWS V14.01,2013-06-13 20:15:00,
2013-06-13 16:20:00,62.6,59.0,29.71,West,270,0.0,0.0,88,0.00,,,0.00,VWS V14.01,2013-06-13 20:20:00,
2013-06-13 16:25:00,62.5,58.9,29.72,West,270,0.0,0.0,88,0.01,,,0.01,VWS V14.01,2013-06-13 20:25:00,
2013-06-13 16:30:00,62.4,59.1,29.72,West,270,0.0,0.0,89,0.01,,,0.01,VWS V14.01,2013-06-13 20:30:00,
2013-06-13 16:35:00,62.2,58.9,29.72,West,270,0.0,0.0,89,0.01,,,0.01,VWS V14.01,2013-06-13 20:35:00,
2013-06-13 16:40:00,62.0,58.7,29.73,West,270,0.0,0.0,89,0.01,,,0.01,VWS V14.01,2013-06-13 20:40:00,
2013-06-13 16:45:00,61.9,58.9,29.73,WNW,292,0.0,2.0,90,0.01,,,0.01,VWS V14.01,2013-06-13 20:45:00,
2013-06-13 16:50:00,61.4,57.8,29.73,WNW,292,0.0,3.0,88,0.01,,,0.01,VWS V14.01,2013-06-13 20:50:00,
2013-06-13 16:55:00,60.6,56.7,29.73,WNW,292,0.0,2.0,87,0.01,,,0.01,VWS V14.01,2013-06-13 20:55:00,
2013-06-13 17:00:00,60.1,56.2,29.73,WNW,292,0.0,1.0,87,0.01,,,0.01,VWS V14.01,2013-06-13 21:00:00,
2013-06-13 17:05:00,59.7,56.2,29.73,WNW,292,0.0,1.0,88,0.01,,,0.01,VWS V14.01,2013-06-13 21:05:00,
2013-06-13 17:10:00,59.4,56.2,29.73,WNW,292,0.0,1.0,89,0.02,,,0.02,VWS V14.01,2013-06-13 21:10:00,
2013-06-13 17:15:00,59.1,55.9,29.73,WNW,292,0.0,1.0,89,0.02,,,0.02,VWS V14.01,2013-06-13 21:15:00,
2013-06-13 17:20:00,59.0,55.8,29.73,WNW,292,0.0,0.0,89,0.03,,,0.03,VWS V14.01,2013-06-13 21:20:00,
2013-06-13 17:25:00,58.8,55.9,29.73,West,270,0.0,1.0,90,0.03,,,0.03,VWS V14.01,2013-06-13 21:25:00,
2013-06-13 17:30:00,58.7,55.8,29.73,West,270,0.0,1.0,90,0.02,,,0.03,VWS V14.01,2013-06-13 21:30:00,
2013-06-13 17:35:00,58.6,56.0,29.73,West,270,0.0,0.0,91,0.02,,,0.03,VWS V14.01,2013-06-13 21:35:00,
2013-06-13 17:40:00,58.4,55.8,29.73,West,270,0.0,1.0,91,0.02,,,0.03,VWS V14.01,2013-06-13 21:40:00,
2013-06-13 17:45:00,58.1,55.2,29.73,West,270,0.0,1.0,90,0.03,,,0.04,VWS V14.01,2013-06-13 21:45:00,
2013-06-13 17:50:00,57.8,55.2,29.73,West,270,0.0,1.0,91,0.03,,,0.04,VWS V14.01,2013-06-13 21:50:00,
2013-06-13 17:55:00,57.7,55.1,29.74,West,270,0.0,1.0,91,0.03,,,0.04,VWS V14.01,2013-06-13 21:55:00,
2013-06-13 18:00:00,57.7,55.1,29.73,West,270,0.0,0.0,91,0.04,,,0.05,VWS V14.01,2013-06-13 22:00:00,
2013-06-13 18:05:00,57.7,55.1,29.74,West,270,0.0,0.0,91,0.04,,,0.05,VWS V14.01,2013-06-13 22:05:00,
2013-06-13 18:10:00,57.8,55.2,29.74,West,270,0.0,0.0,91,0.04,,,0.05,VWS V14.01,2013-06-13 22:10:00,
2013-06-13 18:15:00,57.8,55.5,29.73,West,270,0.0,0.0,92,0.03,,,0.05,VWS V14.01,2013-06-13 22:15:00,
2013-06-13 18:20:00,57.8,55.5,29.74,West,270,0.0,1.0,92,0.03,,,0.05,VWS V14.01,2013-06-13 22:20:00,
2013-06-13 18:25:00,57.7,55.4,29.73,West,270,0.0,1.0,92,0.02,,,0.05,VWS V14.01,2013-06-13 22:25:00,
2013-06-13 18:30:00,57.5,55.2,29.74,West,270,0.0,0.0,92,0.02,,,0.05,VWS V14.01,2013-06-13 22:30:00,
2013-06-13 18:35:00,57.3,55.0,29.73,West,270,0.0,0.0,92,0.03,,,0.06,VWS V14.01,2013-06-13 22:35:00,
2013-06-13 18:40:00,57.1,54.8,29.73,WNW,292,0.0,1.0,92,0.03,,,0.06,VWS V14.01,2013-06-13 22:40:00,
2013-06-13 18:45:00,57.0,54.7,29.73,WNW,292,0.0,2.0,92,0.03,,,0.06,VWS V14.01,2013-06-13 22:45:00,
2013-06-13 18:50:00,57.0,55.0,29.74,WNW,292,0.0,1.0,93,0.02,,,0.06,VWS V14.01,2013-06-13 22:50:00,
2013-06-13 18:55:00,57.2,55.2,29.74,WNW,292,0.0,0.0,93,0.02,,,0.06,VWS V14.01,2013-06-13 22:55:00,
2013-06-13 19:00:00,57.3,55.0,29.74,WNW,292,0.0,0.0,92,0.02,,,0.06,VWS V14.01,2013-06-13 23:00:00,
2013-06-13 19:05:00,57.3,55.0,29.74,WNW,292,0.0,0.0,92,0.01,,,0.06,VWS V14.01,2013-06-13 23:05:00,
2013-06-13 19:10:00,57.3,55.3,29.74,WNW,292,0.0,0.0,93,0.01,,,0.06,VWS V14.01,2013-06-13 23:10:00,
2013-06-13 19:15:00,57.3,55.3,29.75,WNW,292,0.0,1.0,93,0.01,,,0.06,VWS V14.01,2013-06-13 23:15:00,
2013-06-13 19:20:00,57.2,55.2,29.75,WNW,292,0.0,0.0,93,0.01,,,0.06,VWS V14.01,2013-06-13 23:20:00,
2013-06-13 19:25:00,57.2,55.2,29.75,WNW,292,0.0,0.0,93,0.01,,,0.06,VWS V14.01,2013-06-13 23:25:00,
2013-06-13 19:30:00,57.2,55.2,29.75,WNW,292,0.0,0.0,93,0.01,,,0.06,VWS V14.01,2013-06-13 23:30:00,
2013-06-13 19:35:00,57.2,55.2,29.75,WNW,292,0.0,0.0,93,0.01,,,0.06,VWS V14.01,2013-06-13 23:35:00,
2013-06-13 19:40:00,57.1,55.1,29.75,WNW,292,0.0,0.0,93,0.00,,,0.06,VWS V14.01,2013-06-13 23:40:00,
2013-06-13 19:45:00,57.0,54.7,29.75,WNW,292,0.0,0.0,92,0.00,,,0.06,VWS V14.01,2013-06-13 23:45:00,
2013-06-13 19:50:00,56.8,54.5,29.75,WNW,292,0.0,0.0,92,0.00,,,0.06,VWS V14.01,2013-06-13 23:50:00,
2013-06-13 19:55:00,56.6,54.6,29.75,WNW,292,0.0,0.0,93,0.00,,,0.06,VWS V14.01,2013-06-13 23:55:00,
2013-06-13 20:00:00,56.6,54.6,29.75,WNW,292,0.0,0.0,93,0.00,,,0.06,VWS V14.01,2013-06-14 00:00:00,
2013-06-13 20:05:00,56.5,54.5,29.75,WNW,292,0.0,0.0,93,0.00,,,0.06,VWS V14.01,2013-06-14 00:05:00,
2013-06-13 20:10:00,56.4,54.4,29.75,WNW,292,0.0,0.0,93,0.00,,,0.06,VWS V14.01,2013-06-14 00:10:00,
2013-06-13 20:15:00,56.4,54.4,29.75,WNW,292,0.0,0.0,93,0.00,,,0.06,VWS V14.01,2013-06-14 00:15:00,
2013-06-13 20:20:00,56.3,54.3,29.75,WNW,292,0.0,0.0,93,0.00,,,0.06,VWS V14.01,2013-06-14 00:20:00,
2013-06-13 20:33:00,56.0,54.0,29.74,WNW,298,0.0,0.0,93,0.00,,,0.06,VWS V14.01,2013-06-14 00:33:00,
2013-06-13 20:35:00,56.0,54.0,29.74,WNW,298,0.0,0.0,93,0.00,,,0.06,VWS V14.01,2013-06-14 00:35:00,
2013-06-13 20:38:00,55.9,53.9,29.74,WNW,298,0.0,0.0,93,0.00,,,0.06,VWS V14.01,2013-06-14 00:38:00,
2013-06-13 20:40:00,55.9,53.9,29.74,WNW,298,0.0,0.0,93,0.00,,,0.06,VWS V14.01,2013-06-14 00:40:00,
2013-06-13 20:45:00,56.0,54.3,29.74,WNW,298,0.0,0.0,94,0.00,,,0.06,VWS V14.01,2013-06-14 00:45:00,
2013-06-13 20:50:00,56.0,54.0,29.74,North,0,0.0,0.0,93,0.00,,,0.00,VWS V14.01,2013-06-14 00:50:00,
2013-06-13 20:55:00,55.8,53.8,29.74,North,0,0.0,0.0,93,0.00,,,0.00,VWS V14.01,2013-06-14 00:55:00,
2013-06-13 21:00:00,55.6,53.6,29.74,North,0,0.0,0.0,93,0.00,,,0.00,VWS V14.01,2013-06-14 01:00:00,
2013-06-13 21:05:00,55.6,53.9,29.74,WNW,292,0.0,1.0,94,0.00,,,0.00,VWS V14.01,2013-06-14 01:05:00,
2013-06-13 21:10:00,55.5,53.8,29.74,WNW,292,0.0,0.0,94,0.00,,,0.00,VWS V14.01,2013-06-14 01:10:00,
2013-06-13 21:15:00,55.5,53.8,29.74,WNW,292,0.0,1.0,94,0.00,,,0.00,VWS V14.01,2013-06-14 01:15:00,
2013-06-13 21:20:00,55.4,53.7,29.75,WNW,292,0.0,1.0,94,0.00,,,0.00,VWS V14.01,2013-06-14 01:20:00,
2013-06-13 21:25:00,55.3,53.6,29.75,WNW,292,0.0,0.0,94,0.00,,,0.00,VWS V14.01,2013-06-14 01:25:00,
2013-06-13 21:30:00,55.2,53.2,29.75,WNW,292,0.0,0.0,93,0.00,,,0.00,VWS V14.01,2013-06-14 01:30:00,
2013-06-13 21:35:00,55.1,53.4,29.75,WNW,292,0.0,1.0,94,0.00,,,0.00,VWS V14.01,2013-06-14 01:35:00,
2013-06-13 21:40:00,55.0,53.3,29.75,WNW,292,0.0,1.0,94,0.00,,,0.00,VWS V14.01,2013-06-14 01:40:00,
2013-06-13 21:45:00,54.9,53.2,29.75,WNW,292,0.0,0.0,94,0.00,,,0.00,VWS V14.01,2013-06-14 01:45:00,
2013-06-13 21:50:00,54.9,53.2,29.75,WNW,292,0.0,0.0,94,0.00,,,0.00,VWS V14.01,2013-06-14 01:50:00,
2013-06-13 21:55:00,54.8,53.1,29.75,WNW,292,0.0,0.0,94,0.00,,,0.00,VWS V14.01,2013-06-14 01:55:00,
2013-06-13 22:00:00,54.8,53.1,29.75,WNW,292,0.0,0.0,94,0.00,,,0.00,VWS V14.01,2013-06-14 02:00:00,
2013-06-13 22:05:00,54.7,53.0,29.75,WNW,292,0.0,0.0,94,0.00,,,0.00,VWS V14.01,2013-06-14 02:05:00,
2013-06-13 22:10:00,54.6,52.9,29.75,WNW,292,0.0,0.0,94,0.00,,,0.00,VWS V14.01,2013-06-14 02:10:00,
2013-06-13 22:15:00,54.5,52.8,29.75,WNW,292,0.0,0.0,94,0.00,,,0.00,VWS V14.01,2013-06-14 02:15:00,
2013-06-13 22:20:00,54.4,52.7,29.74,WNW,292,0.0,0.0,94,0.00,,,0.00,VWS V14.01,2013-06-14 02:20:00,
2013-06-13 22:25:00,54.4,52.7,29.74,WNW,292,0.0,0.0,94,0.00,,,0.00,VWS V14.01,2013-06-14 02:25:00,
2013-06-13 22:30:00,54.3,52.6,29.75,WNW,292,0.0,0.0,94,0.00,,,0.00,VWS V14.01,2013-06-14 02:30:00,
2013-06-13 22:35:00,54.2,52.5,29.75,WNW,292,0.0,0.0,94,0.00,,,0.00,VWS V14.01,2013-06-14 02:35:00,
2013-06-13 22:40:00,54.1,52.4,29.75,WNW,292,0.0,0.0,94,0.00,,,0.00,VWS V14.01,2013-06-14 02:40:00,
2013-06-13 22:45:00,54.0,52.3,29.75,WNW,292,0.0,0.0,94,0.00,,,0.00,VWS V14.01,2013-06-14 02:45:00,
2013-06-13 22:50:00,53.9,52.2,29.75,WNW,292,0.0,0.0,94,0.00,,,0.00,VWS V14.01,2013-06-14 02:50:00,
2013-06-13 22:55:00,53.8,52.1,29.75,WNW,292,0.0,0.0,94,0.00,,,0.00,VWS V14.01,2013-06-14 02:55:00,
2013-06-13 23:00:00,53.6,51.9,29.75,WNW,292,0.0,0.0,94,0.00,,,0.00,VWS V14.01,2013-06-14 03:00:00,
2013-06-13 23:05:00,53.5,51.8,29.75,WNW,292,0.0,0.0,94,0.00,,,0.00,VWS V14.01,2013-06-14 03:05:00,
2013-06-13 23:10:00,53.4,51.7,29.75,WNW,292,0.0,0.0,94,0.00,,,0.00,VWS V14.01,2013-06-14 03:10:00,
2013-06-13 23:15:00,53.3,51.6,29.75,WNW,292,0.0,0.0,94,0.00,,,0.00,VWS V14.01,2013-06-14 03:15:00,
2013-06-13 23:20:00,53.3,51.6,29.75,WNW,292,0.0,1.0,94,0.00,,,0.00,VWS V14.01,2013-06-14 03:20:00,
2013-06-13 23:25:00,53.3,51.6,29.75,WNW,292,0.0,0.0,94,0.00,,,0.00,VWS V14.01,2013-06-14 03:25:00,
2013-06-13 23:30:00,53.3,51.6,29.75,WNW,292,0.0,0.0,94,0.00,,,0.00,VWS V14.01,2013-06-14 03:30:00,
2013-06-13 23:35:00,53.3,51.6,29.75,WNW,292,0.0,0.0,94,0.00,,,0.00,VWS V14.01,2013-06-14 03:35:00,
2013-06-13 23:40:00,53.3,51.6,29.75,WNW,292,0.0,0.0,94,0.00,,,0.00,VWS V14.01,2013-06-14 03:40:00,
2013-06-13 23:45:00,53.3,51.9,29.75,WNW,292,0.0,0.0,95,0.00,,,0.00,VWS V14.01,2013-06-14 03:45:00,
2013-06-13 23:50:00,53.3,51.9,29.75,WNW,292,0.0,0.0,95,0.00,,,0.00,VWS V14.01,2013-06-14 03:50:00,
2013-06-13 23:55:00,53.3,51.9,29.75,WNW,292,0.0,0.0,95,0.00,,,0.00,VWS V14.01,2013-06-14 03:55:00,